sensor_id;sensor_type;location;lat;lon;timestamp;pressure;altitude;pressure_sealevel;temperature;humidity
80410;BME280;69746;45.596;10.154;2023-08-07T00:00:50;98925.50;;;26.72;36.94
80410;BME280;69746;45.596;10.154;2023-08-07T00:03:15;98931.19;;;26.76;36.86
80410;BME280;69746;45.596;10.154;2023-08-07T00:05:46;98941.56;;;26.75;36.54
80410;BME280;69746;45.596;10.154;2023-08-07T00:08:12;98935.09;;;26.71;36.13
80410;BME280;69746;45.596;10.154;2023-08-07T00:10:38;98937.88;;;26.71;36.28
80410;BME280;69746;45.596;10.154;2023-08-07T00:13:07;98943.13;;;26.73;36.41
80410;BME280;69746;45.596;10.154;2023-08-07T00:15:32;98935.53;;;26.73;36.25
80410;BME280;69746;45.596;10.154;2023-08-07T00:18:01;98951.97;;;26.75;36.26
80410;BME280;69746;45.596;10.154;2023-08-07T00:20:27;98955.94;;;26.74;36.66
80410;BME280;69746;45.596;10.154;2023-08-07T00:22:52;98951.97;;;26.75;36.80
80410;BME280;69746;45.596;10.154;2023-08-07T00:25:18;98951.97;;;26.75;36.61
80410;BME280;69746;45.596;10.154;2023-08-07T00:27:44;98945.53;;;26.74;36.57
80410;BME280;69746;45.596;10.154;2023-08-07T00:30:10;98953.56;;;26.76;36.45
80410;BME280;69746;45.596;10.154;2023-08-07T00:32:37;98949.97;;;26.75;36.62
80410;BME280;69746;45.596;10.154;2023-08-07T00:35:02;98944.00;;;26.77;36.77
80410;BME280;69746;45.596;10.154;2023-08-07T00:37:30;98938.41;;;26.77;36.79
80410;BME280;69746;45.596;10.154;2023-08-07T00:39:59;98938.31;;;26.73;36.58
80410;BME280;69746;45.596;10.154;2023-08-07T00:42:25;98939.59;;;26.76;36.59
80410;BME280;69746;45.596;10.154;2023-08-07T00:44:51;98930.38;;;26.75;36.37
80410;BME280;69746;45.596;10.154;2023-08-07T00:47:17;98932.00;;;26.77;36.23
80410;BME280;69746;45.596;10.154;2023-08-07T00:49:43;98932.81;;;26.77;36.49
80410;BME280;69746;45.596;10.154;2023-08-07T00:52:09;98934.78;;;26.77;36.34
80410;BME280;69746;45.596;10.154;2023-08-07T00:54:36;98937.59;;;26.77;36.60
80410;BME280;69746;45.596;10.154;2023-08-07T00:57:12;98937.59;;;26.77;36.51
80410;BME280;69746;45.596;10.154;2023-08-07T00:59:41;98949.97;;;26.75;36.16
80410;BME280;69746;45.596;10.154;2023-08-07T01:02:12;98951.59;;;26.77;36.31
80410;BME280;69746;45.596;10.154;2023-08-07T01:04:42;98946.81;;;26.77;36.31
80410;BME280;69746;45.596;10.154;2023-08-07T01:07:07;98950.78;;;26.76;36.46
80410;BME280;69746;45.596;10.154;2023-08-07T01:09:34;98955.56;;;26.75;36.12
80410;BME280;69746;45.596;10.154;2023-08-07T01:12:19;98947.63;;;26.78;36.34
80410;BME280;69746;45.596;10.154;2023-08-07T01:15:08;98944.38;;;26.75;36.15
80410;BME280;69746;45.596;10.154;2023-08-07T01:17:37;98952.75;;;26.75;36.30
80410;BME280;69746;45.596;10.154;2023-08-07T01:20:03;98961.16;;;26.75;36.58
80410;BME280;69746;45.596;10.154;2023-08-07T01:22:30;98949.97;;;26.75;36.20
80410;BME280;69746;45.596;10.154;2023-08-07T01:24:56;98954.75;;;26.75;36.09
80410;BME280;69746;45.596;10.154;2023-08-07T01:27:35;98961.97;;;26.76;36.16
80410;BME280;69746;45.596;10.154;2023-08-07T01:35:23;98954.69;;;26.71;35.45
80410;BME280;69746;45.596;10.154;2023-08-07T01:37:54;98953.06;;;26.70;35.54
80410;BME280;69746;45.596;10.154;2023-08-07T01:40:23;98945.91;;;26.73;35.71
80410;BME280;69746;45.596;10.154;2023-08-07T01:42:49;98951.88;;;26.71;35.36
80410;BME280;69746;45.596;10.154;2023-08-07T01:45:24;98950.69;;;26.72;35.58
80410;BME280;69746;45.596;10.154;2023-08-07T01:47:50;98949.06;;;26.71;35.20
80410;BME280;69746;45.596;10.154;2023-08-07T01:50:18;98949.88;;;26.72;35.46
80410;BME280;69746;45.596;10.154;2023-08-07T01:52:48;98955.84;;;26.70;35.40
80410;BME280;69746;45.596;10.154;2023-08-07T01:55:15;98955.84;;;26.70;35.18
80410;BME280;69746;45.596;10.154;2023-08-07T01:57:41;98949.78;;;26.68;34.87
80410;BME280;69746;45.596;10.154;2023-08-07T02:00:08;98946.91;;;26.65;34.68
80410;BME280;69746;45.596;10.154;2023-08-07T02:02:34;98946.53;;;26.66;35.19
80410;BME280;69746;45.596;10.154;2023-08-07T02:05:01;98964.13;;;26.67;35.00
80410;BME280;69746;45.596;10.154;2023-08-07T02:07:26;98960.53;;;26.66;34.94
80410;BME280;69746;45.596;10.154;2023-08-07T02:09:52;98961.69;;;26.65;34.43
80410;BME280;69746;45.596;10.154;2023-08-07T02:12:18;98964.06;;;26.63;34.60
80410;BME280;69746;45.596;10.154;2023-08-07T02:14:44;98958.47;;;26.63;34.33
80410;BME280;69746;45.596;10.154;2023-08-07T02:17:12;98962.78;;;26.61;33.90
80410;BME280;69746;45.596;10.154;2023-08-07T02:19:38;98964.78;;;26.60;34.36
80410;BME280;69746;45.596;10.154;2023-08-07T02:22:04;98962.78;;;26.61;34.40
80410;BME280;69746;45.596;10.154;2023-08-07T02:24:30;98960.00;;;26.61;35.10
80410;BME280;69746;45.596;10.154;2023-08-07T02:26:56;98958.00;;;26.61;35.05
80410;BME280;69746;45.596;10.154;2023-08-07T02:29:22;98960.00;;;26.61;34.74
80410;BME280;69746;45.596;10.154;2023-08-07T02:31:48;98958.00;;;26.61;34.88
80410;BME280;69746;45.596;10.154;2023-08-07T02:34:14;98957.19;;;26.61;34.89
80410;BME280;69746;45.596;10.154;2023-08-07T02:36:39;98955.59;;;26.60;34.63
80410;BME280;69746;45.596;10.154;2023-08-07T02:39:06;98957.56;;;26.59;34.84
80410;BME280;69746;45.596;10.154;2023-08-07T02:41:32;98943.59;;;26.59;34.79
80410;BME280;69746;45.596;10.154;2023-08-07T02:44:01;98949.19;;;26.59;34.30
80410;BME280;69746;45.596;10.154;2023-08-07T02:46:27;98950.00;;;26.60;34.57
80410;BME280;69746;45.596;10.154;2023-08-07T02:48:52;98952.78;;;26.60;34.42
80410;BME280;69746;45.596;10.154;2023-08-07T02:51:19;98948.38;;;26.59;34.08
80410;BME280;69746;45.596;10.154;2023-08-07T02:53:45;98949.53;;;26.58;34.47
80410;BME280;69746;45.596;10.154;2023-08-07T02:56:11;98954.31;;;26.57;34.13
80410;BME280;69746;45.596;10.154;2023-08-07T02:58:36;98945.47;;;26.55;33.91
80410;BME280;69746;45.596;10.154;2023-08-07T03:01:05;98952.22;;;26.54;33.98
80410;BME280;69746;45.596;10.154;2023-08-07T03:03:34;98952.22;;;26.54;33.68
80410;BME280;69746;45.596;10.154;2023-08-07T03:06:00;98940.50;;;26.49;33.11
80410;BME280;69746;45.596;10.154;2023-08-07T03:08:29;98949.28;;;26.47;33.59
80410;BME280;69746;45.596;10.154;2023-08-07T03:10:56;98953.69;;;26.48;33.59
80410;BME280;69746;45.596;10.154;2023-08-07T03:13:22;98949.28;;;26.47;33.59
80410;BME280;69746;45.596;10.154;2023-08-07T03:15:48;98956.84;;;26.47;33.88
80410;BME280;69746;45.596;10.154;2023-08-07T03:18:17;98956.47;;;26.48;33.41
80410;BME280;69746;45.596;10.154;2023-08-07T03:20:43;98962.81;;;26.45;33.40
80410;BME280;69746;45.596;10.154;2023-08-07T03:23:09;98960.38;;;26.43;33.33
80410;BME280;69746;45.596;10.154;2023-08-07T03:25:36;98962.31;;;26.43;33.51
80410;BME280;69746;45.596;10.154;2023-08-07T03:28:02;98948.25;;;26.39;33.42
80410;BME280;69746;45.596;10.154;2023-08-07T03:30:28;98947.09;;;26.40;33.54
80410;BME280;69746;45.596;10.154;2023-08-07T03:32:54;98949.53;;;26.42;33.79
80410;BME280;69746;45.596;10.154;2023-08-07T03:35:23;98951.13;;;26.43;33.45
80410;BME280;69746;45.596;10.154;2023-08-07T03:37:48;98947.53;;;26.42;33.59
80410;BME280;69746;45.596;10.154;2023-08-07T03:40:14;98953.94;;;26.43;33.66
80410;BME280;69746;45.596;10.154;2023-08-07T03:42:40;98950.34;;;26.42;33.78
80410;BME280;69746;45.596;10.154;2023-08-07T03:45:06;98949.53;;;26.42;33.24
80410;BME280;69746;45.596;10.154;2023-08-07T03:47:33;98945.91;;;26.41;33.45
80410;BME280;69746;45.596;10.154;2023-08-07T03:49:58;98938.34;;;26.42;33.52
80410;BME280;69746;45.596;10.154;2023-08-07T03:52:24;98940.31;;;26.41;33.35
80410;BME280;69746;45.596;10.154;2023-08-07T03:54:50;98946.72;;;26.42;32.85
80410;BME280;69746;45.596;10.154;2023-08-07T03:57:16;98932.66;;;26.38;32.82
80410;BME280;69746;45.596;10.154;2023-08-07T03:59:44;98940.13;;;26.34;32.32
80410;BME280;69746;45.596;10.154;2023-08-07T04:02:10;98943.72;;;26.35;32.01
80410;BME280;69746;45.596;10.154;2023-08-07T04:04:36;98945.28;;;26.32;31.91
80410;BME280;69746;45.596;10.154;2023-08-07T04:07:03;98949.25;;;26.31;31.63
80410;BME280;69746;45.596;10.154;2023-08-07T04:09:29;98965.19;;;26.31;31.21
80410;BME280;69746;45.596;10.154;2023-08-07T04:11:55;98959.13;;;26.29;31.17
80410;BME280;69746;45.596;10.154;2023-08-07T04:14:20;98961.47;;;26.27;30.79
80410;BME280;69746;45.596;10.154;2023-08-07T04:16:46;98954.63;;;26.24;30.75
80410;BME280;69746;45.596;10.154;2023-08-07T04:19:12;98953.81;;;26.24;31.07
80410;BME280;69746;45.596;10.154;2023-08-07T04:21:38;98955.00;;;26.23;30.79
80410;BME280;69746;45.596;10.154;2023-08-07T04:24:06;98950.13;;;26.20;31.17
80410;BME280;69746;45.596;10.154;2023-08-07T04:26:38;98962.47;;;26.19;30.84
80410;BME280;69746;45.596;10.154;2023-08-07T04:29:05;98960.88;;;26.17;31.22
80410;BME280;69746;45.596;10.154;2023-08-07T04:31:31;98958.75;;;26.14;30.93
80410;BME280;69746;45.596;10.154;2023-08-07T04:33:58;98972.72;;;26.14;30.98
80410;BME280;69746;45.596;10.154;2023-08-07T04:36:24;98971.47;;;26.12;31.26
80410;BME280;69746;45.596;10.154;2023-08-07T04:38:50;98968.69;;;26.12;31.77
80410;BME280;69746;45.596;10.154;2023-08-07T04:41:16;98957.50;;;26.12;31.87
80410;BME280;69746;45.596;10.154;2023-08-07T04:43:43;98957.59;;;26.15;32.25
80410;BME280;69746;45.596;10.154;2023-08-07T04:46:09;98964.78;;;26.16;32.16
80410;BME280;69746;45.596;10.154;2023-08-07T04:48:36;98968.88;;;26.19;32.41
80410;BME280;69746;45.596;10.154;2023-08-07T04:51:02;98972.94;;;26.22;32.59
80410;BME280;69746;45.596;10.154;2023-08-07T04:53:27;98974.56;;;26.23;32.87
80410;BME280;69746;45.596;10.154;2023-08-07T04:55:53;98968.59;;;26.24;33.19
80410;BME280;69746;45.596;10.154;2023-08-07T04:58:19;98970.22;;;26.25;33.21
80410;BME280;69746;45.596;10.154;2023-08-07T05:00:45;98965.09;;;26.27;33.19
80410;BME280;69746;45.596;10.154;2023-08-07T05:03:11;98971.50;;;26.28;33.80
80410;BME280;69746;45.596;10.154;2023-08-07T05:05:38;98972.31;;;26.28;33.36
80410;BME280;69746;45.596;10.154;2023-08-07T05:08:04;98986.72;;;26.30;33.60
80410;BME280;69746;45.596;10.154;2023-08-07T05:10:30;98983.94;;;26.30;33.80
80410;BME280;69746;45.596;10.154;2023-08-07T05:12:56;98978.81;;;26.32;34.10
80410;BME280;69746;45.596;10.154;2023-08-07T05:15:23;98976.84;;;26.33;33.88
80410;BME280;69746;45.596;10.154;2023-08-07T05:17:50;98984.06;;;26.34;34.12
80410;BME280;69746;45.596;10.154;2023-08-07T05:20:19;98977.28;;;26.35;34.10
80410;BME280;69746;45.596;10.154;2023-08-07T05:22:44;98986.50;;;26.35;34.38
80410;BME280;69746;45.596;10.154;2023-08-07T05:25:10;98978.94;;;26.36;34.04
80410;BME280;69746;45.596;10.154;2023-08-07T05:27:41;98988.13;;;26.36;34.43
80410;BME280;69746;45.596;10.154;2023-08-07T05:30:07;98986.97;;;26.37;34.57
80410;BME280;69746;45.596;10.154;2023-08-07T05:32:33;98979.38;;;26.38;34.37
80410;BME280;69746;45.596;10.154;2023-08-07T05:35:05;98984.97;;;26.38;34.67
80410;BME280;69746;45.596;10.154;2023-08-07T05:37:31;98983.81;;;26.39;34.42
80410;BME280;69746;45.596;10.154;2023-08-07T05:39:57;98995.44;;;26.41;34.61
80410;BME280;69746;45.596;10.154;2023-08-07T05:42:23;98999.84;;;26.42;34.43
80410;BME280;69746;45.596;10.154;2023-08-07T05:44:49;98997.06;;;26.42;34.47
80410;BME280;69746;45.596;10.154;2023-08-07T05:47:17;98995.44;;;26.41;34.70
80410;BME280;69746;45.596;10.154;2023-08-07T05:49:43;99005.13;;;26.43;34.81
80410;BME280;69746;45.596;10.154;2023-08-07T05:52:10;99006.75;;;26.44;34.95
80410;BME280;69746;45.596;10.154;2023-08-07T05:54:36;99011.16;;;26.45;35.01
80410;BME280;69746;45.596;10.154;2023-08-07T05:57:02;99015.59;;;26.47;34.85
80410;BME280;69746;45.596;10.154;2023-08-07T05:59:27;99005.22;;;26.47;34.88
80410;BME280;69746;45.596;10.154;2023-08-07T06:01:54;99009.63;;;26.48;35.01
80410;BME280;69746;45.596;10.154;2023-08-07T06:04:21;99011.25;;;26.49;34.95
80410;BME280;69746;45.596;10.154;2023-08-07T06:06:47;99020.44;;;26.50;35.12
80410;BME280;69746;45.596;10.154;2023-08-07T06:09:13;99024.06;;;26.50;35.11
80410;BME280;69746;45.596;10.154;2023-08-07T06:11:45;99030.47;;;26.51;35.54
80410;BME280;69746;45.596;10.154;2023-08-07T06:14:11;99036.06;;;26.51;35.13
80410;BME280;69746;45.596;10.154;2023-08-07T06:16:38;99024.41;;;26.49;35.35
80410;BME280;69746;45.596;10.154;2023-08-07T06:19:03;99039.31;;;26.53;35.41
80410;BME280;69746;45.596;10.154;2023-08-07T06:21:29;99037.31;;;26.53;35.73
80410;BME280;69746;45.596;10.154;2023-08-07T06:23:56;99048.50;;;26.53;35.76
80410;BME280;69746;45.596;10.154;2023-08-07T06:26:22;99040.13;;;26.53;35.52
80410;BME280;69746;45.596;10.154;2023-08-07T06:28:48;99042.56;;;26.55;35.90
80410;BME280;69746;45.596;10.154;2023-08-07T06:31:15;99047.34;;;26.54;35.84
80410;BME280;69746;45.596;10.154;2023-08-07T06:33:41;99047.34;;;26.54;35.92
80410;BME280;69746;45.596;10.154;2023-08-07T06:36:10;99044.97;;;26.56;35.64
80410;BME280;69746;45.596;10.154;2023-08-07T06:38:36;99050.56;;;26.56;35.72
80410;BME280;69746;45.596;10.154;2023-08-07T06:41:02;99047.78;;;26.56;36.06
80410;BME280;69746;45.596;10.154;2023-08-07T06:43:28;99046.16;;;26.55;35.81
80410;BME280;69746;45.596;10.154;2023-08-07T06:45:55;99041.03;;;26.57;35.77
80410;BME280;69746;45.596;10.154;2023-08-07T06:48:21;99043.47;;;26.59;36.09
80410;BME280;69746;45.596;10.154;2023-08-07T06:50:48;99051.88;;;26.59;36.24
80410;BME280;69746;45.596;10.154;2023-08-07T06:53:14;99041.84;;;26.58;36.07
80410;BME280;69746;45.596;10.154;2023-08-07T06:55:41;99048.72;;;26.60;36.07
80410;BME280;69746;45.596;10.154;2023-08-07T06:58:07;99034.28;;;26.58;35.97
80410;BME280;69746;45.596;10.154;2023-08-07T07:00:34;99046.28;;;26.59;36.09
80410;BME280;69746;45.596;10.154;2023-08-07T07:03:04;99042.75;;;26.62;36.05
80410;BME280;69746;45.596;10.154;2023-08-07T07:05:30;99050.78;;;26.63;36.08
80410;BME280;69746;45.596;10.154;2023-08-07T07:07:57;99055.56;;;26.63;36.64
80410;BME280;69746;45.596;10.154;2023-08-07T07:10:23;99055.56;;;26.63;36.42
80410;BME280;69746;45.596;10.154;2023-08-07T07:12:49;99044.38;;;26.63;36.45
80410;BME280;69746;45.596;10.154;2023-08-07T07:15:15;99055.19;;;26.64;36.25
80410;BME280;69746;45.596;10.154;2023-08-07T07:17:41;99053.22;;;26.65;36.36
80410;BME280;69746;45.596;10.154;2023-08-07T07:20:08;99056.81;;;26.65;36.75
80410;BME280;69746;45.596;10.154;2023-08-07T07:22:36;99052.84;;;26.66;36.68
80410;BME280;69746;45.596;10.154;2023-08-07T07:25:03;99047.25;;;26.66;36.35
80410;BME280;69746;45.596;10.154;2023-08-07T07:27:29;99055.66;;;26.66;36.79
80410;BME280;69746;45.596;10.154;2023-08-07T07:29:57;99053.28;;;26.68;36.56
80410;BME280;69746;45.596;10.154;2023-08-07T07:32:23;99052.50;;;26.68;36.61
80410;BME280;69746;45.596;10.154;2023-08-07T07:34:51;99054.13;;;26.69;36.75
80410;BME280;69746;45.596;10.154;2023-08-07T07:37:17;99051.31;;;26.69;36.84
80410;BME280;69746;45.596;10.154;2023-08-07T07:39:43;99054.97;;;26.69;37.13
80410;BME280;69746;45.596;10.154;2023-08-07T07:42:09;99052.97;;;26.70;36.67
80410;BME280;69746;45.596;10.154;2023-08-07T07:44:35;99053.78;;;26.70;37.20
80410;BME280;69746;45.596;10.154;2023-08-07T07:47:02;99054.97;;;26.69;36.94
80410;BME280;69746;45.596;10.154;2023-08-07T07:49:28;99052.16;;;26.69;36.83
80410;BME280;69746;45.596;10.154;2023-08-07T07:51:53;99062.16;;;26.70;37.22
80410;BME280;69746;45.596;10.154;2023-08-07T07:54:19;99072.19;;;26.71;37.21
80410;BME280;69746;45.596;10.154;2023-08-07T07:56:48;99079.41;;;26.72;36.80
80410;BME280;69746;45.596;10.154;2023-08-07T07:59:14;99076.59;;;26.72;37.30
80410;BME280;69746;45.596;10.154;2023-08-07T08:01:40;99080.22;;;26.73;37.36
80410;BME280;69746;45.596;10.154;2023-08-07T08:04:06;99085.44;;;26.74;37.49
80410;BME280;69746;45.596;10.154;2023-08-07T08:06:32;99087.44;;;26.74;37.58
80410;BME280;69746;45.596;10.154;2023-08-07T08:08:58;99086.19;;;26.71;37.25
80410;BME280;69746;45.596;10.154;2023-08-07T08:11:25;99092.69;;;26.75;37.54
80410;BME280;69746;45.596;10.154;2023-08-07T08:13:50;99098.28;;;26.75;37.66
80410;BME280;69746;45.596;10.154;2023-08-07T08:16:17;99097.09;;;26.77;37.59
80410;BME280;69746;45.596;10.154;2023-08-07T08:18:43;99084.28;;;26.75;37.37
80410;BME280;69746;45.596;10.154;2023-08-07T08:21:12;99093.47;;;26.76;37.43
80410;BME280;69746;45.596;10.154;2023-08-07T08:23:37;99100.72;;;26.77;37.54
80410;BME280;69746;45.596;10.154;2023-08-07T08:26:03;99100.72;;;26.77;37.77
80410;BME280;69746;45.596;10.154;2023-08-07T08:28:29;99105.13;;;26.78;37.85
80410;BME280;69746;45.596;10.154;2023-08-07T08:30:55;99105.13;;;26.78;37.61
80410;BME280;69746;45.596;10.154;2023-08-07T08:33:23;99105.13;;;26.78;37.79
80410;BME280;69746;45.596;10.154;2023-08-07T08:35:49;99120.75;;;26.79;37.96
80410;BME280;69746;45.596;10.154;2023-08-07T08:38:15;99117.59;;;26.81;37.81
80410;BME280;69746;45.596;10.154;2023-08-07T08:40:43;99116.78;;;26.80;38.08
80410;BME280;69746;45.596;10.154;2023-08-07T08:43:19;99124.00;;;26.81;37.81
80410;BME280;69746;45.596;10.154;2023-08-07T08:45:46;99116.31;;;26.78;37.76
80410;BME280;69746;45.596;10.154;2023-08-07T08:48:15;99120.38;;;26.81;37.92
80410;BME280;69746;45.596;10.154;2023-08-07T08:50:54;99122.00;;;26.82;38.44
80410;BME280;69746;45.596;10.154;2023-08-07T08:53:20;99121.56;;;26.80;38.06
80410;BME280;69746;45.596;10.154;2023-08-07T08:55:47;99121.19;;;26.81;38.28
80410;BME280;69746;45.596;10.154;2023-08-07T08:58:16;99123.91;;;26.78;38.04
80410;BME280;69746;45.596;10.154;2023-08-07T09:00:43;99128.41;;;26.82;38.17
80410;BME280;69746;45.596;10.154;2023-08-07T09:03:10;99131.22;;;26.82;38.48
80410;BME280;69746;45.596;10.154;2023-08-07T09:05:36;99132.88;;;26.83;38.26
80410;BME280;69746;45.596;10.154;2023-08-07T09:08:05;99124.00;;;26.81;38.14
80410;BME280;69746;45.596;10.154;2023-08-07T09:10:32;99134.00;;;26.82;38.40
80410;BME280;69746;45.596;10.154;2023-08-07T09:13:03;99131.69;;;26.84;38.51
80410;BME280;69746;45.596;10.154;2023-08-07T09:15:32;99128.09;;;26.84;38.54
80410;BME280;69746;45.596;10.154;2023-08-07T09:17:59;99140.91;;;26.85;38.66
80410;BME280;69746;45.596;10.154;2023-08-07T09:20:26;99132.50;;;26.85;38.33
80410;BME280;69746;45.596;10.154;2023-08-07T09:22:52;99136.13;;;26.85;38.75
80410;BME280;69746;45.596;10.154;2023-08-07T09:25:30;99133.31;;;26.85;38.61
80410;BME280;69746;45.596;10.154;2023-08-07T09:27:57;99130.50;;;26.85;38.40
80410;BME280;69746;45.596;10.154;2023-08-07T09:30:27;99137.75;;;26.86;38.71
80410;BME280;69746;45.596;10.154;2023-08-07T09:32:56;99133.69;;;26.84;38.62
80410;BME280;69746;45.596;10.154;2023-08-07T09:35:25;99126.53;;;26.86;38.76
80410;BME280;69746;45.596;10.154;2023-08-07T09:37:50;99126.53;;;26.86;38.84
80410;BME280;69746;45.596;10.154;2023-08-07T09:40:18;99122.56;;;26.87;38.83
80410;BME280;69746;45.596;10.154;2023-08-07T09:42:44;99124.56;;;26.87;38.56
80410;BME280;69746;45.596;10.154;2023-08-07T09:45:23;99122.56;;;26.87;38.91
80410;BME280;69746;45.596;10.154;2023-08-07T09:48:00;99123.38;;;26.88;38.64
80410;BME280;69746;45.596;10.154;2023-08-07T09:50:27;99123.75;;;26.86;38.66
80410;BME280;69746;45.596;10.154;2023-08-07T09:52:53;99122.22;;;26.89;39.07
80410;BME280;69746;45.596;10.154;2023-08-07T09:55:20;99119.41;;;26.89;38.69
80410;BME280;69746;45.596;10.154;2023-08-07T09:57:46;99115.44;;;26.90;38.87
80410;BME280;69746;45.596;10.154;2023-08-07T10:00:15;99113.44;;;26.90;38.77
80410;BME280;69746;45.596;10.154;2023-08-07T10:02:42;99113.44;;;26.90;38.85
80410;BME280;69746;45.596;10.154;2023-08-07T10:05:11;99117.88;;;26.91;38.81
80410;BME280;69746;45.596;10.154;2023-08-07T10:07:38;99114.25;;;26.91;38.85
80410;BME280;69746;45.596;10.154;2023-08-07T10:10:05;99112.28;;;26.91;39.11
80410;BME280;69746;45.596;10.154;2023-08-07T10:12:32;99108.28;;;26.92;39.14
80410;BME280;69746;45.596;10.154;2023-08-07T10:15:00;99103.50;;;26.93;39.25
80410;BME280;69746;45.596;10.154;2023-08-07T10:17:27;99103.50;;;26.93;39.04
80410;BME280;69746;45.596;10.154;2023-08-07T10:19:53;99107.94;;;26.94;39.09
80410;BME280;69746;45.596;10.154;2023-08-07T10:22:19;99104.31;;;26.93;39.28
80410;BME280;69746;45.596;10.154;2023-08-07T10:24:49;99104.31;;;26.93;39.27
80410;BME280;69746;45.596;10.154;2023-08-07T10:27:20;99109.56;;;26.95;39.05
80410;BME280;69746;45.596;10.154;2023-08-07T10:29:49;99110.72;;;26.94;39.10
80410;BME280;69746;45.596;10.154;2023-08-07T10:32:19;99101.97;;;26.95;39.17
80410;BME280;69746;45.596;10.154;2023-08-07T10:34:50;99101.16;;;26.95;39.09
80410;BME280;69746;45.596;10.154;2023-08-07T10:37:38;99109.22;;;26.96;39.22
80410;BME280;69746;45.596;10.154;2023-08-07T10:40:07;99096.38;;;26.95;39.02
80410;BME280;69746;45.596;10.154;2023-08-07T10:42:52;99100.81;;;26.96;39.41
80410;BME280;69746;45.596;10.154;2023-08-07T10:45:18;99097.22;;;26.96;39.49
80410;BME280;69746;45.596;10.154;2023-08-07T10:48:13;99092.44;;;26.96;39.36
80410;BME280;69746;45.596;10.154;2023-08-07T10:51:03;99097.22;;;26.96;39.51
80410;BME280;69746;45.596;10.154;2023-08-07T10:53:37;99090.78;;;26.95;39.55
80410;BME280;69746;45.596;10.154;2023-08-07T10:56:14;99086.47;;;26.98;39.35
80410;BME280;69746;45.596;10.154;2023-08-07T10:58:41;99087.66;;;26.97;39.25
80410;BME280;69746;45.596;10.154;2023-08-07T11:06:34;99090.44;;;26.97;39.49
80410;BME280;69746;45.596;10.154;2023-08-07T11:09:03;99082.38;;;26.95;39.40
80410;BME280;69746;45.596;10.154;2023-08-07T11:11:44;99075.28;;;26.98;39.49
80410;BME280;69746;45.596;10.154;2023-08-07T11:14:13;99073.66;;;26.97;39.41
80410;BME280;69746;45.596;10.154;2023-08-07T11:16:40;99069.66;;;26.98;39.70
80410;BME280;69746;45.596;10.154;2023-08-07T11:19:08;99067.69;;;26.98;39.73
80410;BME280;69746;45.596;10.154;2023-08-07T11:21:37;99071.28;;;26.99;39.71
80410;BME280;69746;45.596;10.154;2023-08-07T11:24:03;99060.91;;;26.99;39.71
80410;BME280;69746;45.596;10.154;2023-08-07T11:26:29;99069.31;;;26.99;39.69
80410;BME280;69746;45.596;10.154;2023-08-07T11:28:55;99068.13;;;27.00;39.52
80410;BME280;69746;45.596;10.154;2023-08-07T11:31:23;99067.31;;;27.00;39.72
80410;BME280;69746;45.596;10.154;2023-08-07T11:33:51;99062.53;;;27.00;39.87
80410;BME280;69746;45.596;10.154;2023-08-07T11:36:17;99053.31;;;27.00;39.76
80410;BME280;69746;45.596;10.154;2023-08-07T11:38:44;99054.97;;;27.01;39.74
80410;BME280;69746;45.596;10.154;2023-08-07T11:41:12;99055.69;;;26.98;39.78
80410;BME280;69746;45.596;10.154;2023-08-07T11:43:40;99059.72;;;27.00;39.43
80410;BME280;69746;45.596;10.154;2023-08-07T11:46:10;99056.59;;;27.02;39.92
80410;BME280;69746;45.596;10.154;2023-08-07T11:48:41;99062.19;;;27.02;39.93
80410;BME280;69746;45.596;10.154;2023-08-07T11:51:09;99076.19;;;27.02;39.59
80410;BME280;69746;45.596;10.154;2023-08-07T11:53:37;99065.81;;;27.02;39.65
80410;BME280;69746;45.596;10.154;2023-08-07T11:56:07;99055.78;;;27.01;39.61
80410;BME280;69746;45.596;10.154;2023-08-07T11:58:43;99065.00;;;27.02;39.98
80410;BME280;69746;45.596;10.154;2023-08-07T12:01:13;99063.81;;;27.03;39.68
80410;BME280;69746;45.596;10.154;2023-08-07T12:03:52;99061.81;;;27.03;39.89
80410;BME280;69746;45.596;10.154;2023-08-07T12:06:25;99077.81;;;27.03;39.69
80410;BME280;69746;45.596;10.154;2023-08-07T12:08:55;99063.81;;;27.03;39.91
80410;BME280;69746;45.596;10.154;2023-08-07T12:11:22;99076.63;;;27.04;39.96
80410;BME280;69746;45.596;10.154;2023-08-07T12:13:49;99074.66;;;27.04;39.77
80410;BME280;69746;45.596;10.154;2023-08-07T12:16:16;99070.22;;;27.03;40.09
80410;BME280;69746;45.596;10.154;2023-08-07T12:18:46;99063.44;;;27.04;39.81
80410;BME280;69746;45.596;10.154;2023-08-07T12:21:21;99063.44;;;27.04;40.06
80410;BME280;69746;45.596;10.154;2023-08-07T12:23:49;99063.44;;;27.04;40.06
80410;BME280;69746;45.596;10.154;2023-08-07T12:26:16;99063.44;;;27.04;39.74
80410;BME280;69746;45.596;10.154;2023-08-07T12:28:43;99072.66;;;27.05;39.76
80410;BME280;69746;45.596;10.154;2023-08-07T12:31:10;99061.47;;;27.05;39.90
80410;BME280;69746;45.596;10.154;2023-08-07T12:33:35;99074.28;;;27.06;40.16
80410;BME280;69746;45.596;10.154;2023-08-07T12:36:04;99071.47;;;27.06;40.07
80410;BME280;69746;45.596;10.154;2023-08-07T12:38:31;99063.91;;;27.07;39.84
80410;BME280;69746;45.596;10.154;2023-08-07T12:41:03;99066.69;;;27.07;40.22
80410;BME280;69746;45.596;10.154;2023-08-07T12:43:29;99058.31;;;27.07;40.30
80410;BME280;69746;45.596;10.154;2023-08-07T12:45:54;99058.31;;;27.07;40.25
80410;BME280;69746;45.596;10.154;2023-08-07T12:48:21;99056.31;;;27.07;40.32
80410;BME280;69746;45.596;10.154;2023-08-07T12:50:47;99059.91;;;27.08;40.35
80410;BME280;69746;45.596;10.154;2023-08-07T12:53:13;99050.72;;;27.07;39.93
80410;BME280;69746;45.596;10.154;2023-08-07T12:55:39;99055.13;;;27.08;39.98
80410;BME280;69746;45.596;10.154;2023-08-07T12:58:05;99047.56;;;27.09;40.25
80410;BME280;69746;45.596;10.154;2023-08-07T13:00:31;99052.34;;;27.08;40.34
80410;BME280;69746;45.596;10.154;2023-08-07T13:02:57;99051.53;;;27.08;40.20